Time;durP1;ratioP1;P1;durP2;ratioP2;P2;SDS_P1;SDS_P2;PMS_P1;PMS_P2;Temp;Humidity;BMP_temperature;BMP_pressure;BME280_temperature;BME280_humidity;BME280_pressure;Samples;Min_cycle;Max_cycle;Signal;HPM_P1;HPM_P2
2023/08/27 00:00:04;;;;;;;7.35;6.75;;;;;;;-144.30;56.15;83933.63;5089753;28;20203;-51
2023/08/27 00:09:23;;;;;;;7.57;6.70;;;;;;;-144.30;57.05;83965.41;5088919;28;20209;-53
2023/08/27 00:15:19;;;;;;;9.23;6.93;;;;;;;-144.30;57.68;83933.63;5087157;28;20226;-50
2023/08/27 00:27:15;;;;;;;8.25;7.32;;;;;;;-144.30;58.11;83955.47;5087371;28;20202;-53
2023/08/27 00:30:08;;;;;;;7.93;7.15;;;;;;;-144.30;58.35;83959.44;5089392;28;20199;-52
2023/08/27 00:33:03;;;;;;;7.97;7.28;;;;;;;-144.30;58.47;83977.34;5089397;28;20200;-51
2023/08/27 00:35:54;;;;;;;7.47;6.68;;;;;;;-144.30;58.76;83979.31;5089276;28;20195;-51
2023/08/27 00:38:58;;;;;;;8.35;7.03;;;;;;;-144.30;59.03;83953.50;5088734;28;20198;-50
2023/08/27 00:45:09;;;;;;;8.10;7.00;;;;;;;-144.30;58.97;84003.16;5088139;28;20618;-51
2023/08/27 00:48:22;;;;;;;8.30;7.13;;;;;;;-144.30;59.20;83955.47;5088261;28;20199;-54
2023/08/27 00:51:24;;;;;;;7.72;6.93;;;;;;;-144.30;59.13;83951.50;5087676;28;20488;-51
2023/08/27 00:54:25;;;;;;;8.63;7.05;;;;;;;-144.30;59.22;83981.31;5104588;28;20658;-51
2023/08/27 01:03:51;;;;;;;7.15;6.60;;;;;;;-144.30;59.89;84031.00;5065983;28;20266;-52
2023/08/27 01:13:07;;;;;;;7.57;6.85;;;;;;;-144.30;61.08;84019.06;5066154;28;20896;-48
2023/08/27 01:19:31;;;;;;;;;;;;;;;;;;;;;
2023/08/27 01:26:10;;;;;;;8.73;8.10;;;;;;;-144.30;62.28;84076.69;5067070;28;20300;-49
2023/08/27 01:29:11;;;;;;;7.70;6.97;;;;;;;-144.30;63.41;84001.19;5068470;28;20200;-49
2023/08/27 01:32:25;;;;;;;8.35;7.68;;;;;;;-144.30;63.98;84078.69;5068445;28;20286;-50
2023/08/27 01:45:02;;;;;;;7.25;6.65;;;;;;;-144.30;62.80;84124.38;4688436;27;12388855;-49
2023/08/27 01:48:06;;;;;;;8.48;7.78;;;;;;;-144.30;62.37;84100.53;5105164;28;20226;-51
2023/08/27 01:51:06;;;;;;;8.35;7.72;;;;;;;-144.30;62.37;84114.44;5104885;28;20200;-52
2023/08/27 01:59:41;;;;;;;8.07;7.28;;;;;;;-144.30;61.73;84108.50;5097026;28;20211;-52
2023/08/27 02:02:56;;;;;;;9.25;8.45;;;;;;;-144.30;62.13;84104.50;5104703;28;20218;-52
2023/08/27 02:06:01;;;;;;;7.68;6.93;;;;;;;-144.30;62.96;84122.41;5106437;28;20251;-52
2023/08/27 02:11:54;;;;;;;9.05;7.97;;;;;;;-144.30;63.92;84124.38;5106091;28;20281;-49
2023/08/27 02:14:47;;;;;;;8.10;7.50;;;;;;;-144.30;64.44;84128.34;5103509;28;20248;-53
2023/08/27 02:17:57;;;;;;;8.02;7.20;;;;;;;-144.30;64.29;84140.28;5105992;28;20191;-52
2023/08/27 02:21:06;;;;;;;8.40;7.57;;;;;;;-144.30;64.09;84128.34;5104060;28;20202;-49
2023/08/27 02:24:12;;;;;;;9.23;7.80;;;;;;;-144.30;64.15;84124.38;5104350;28;20313;-50
2023/08/27 02:27:03;;;;;;;9.23;8.38;;;;;;;-144.30;64.40;84128.34;5105969;28;20690;-52
2023/08/27 02:30:32;;;;;;;10.15;7.85;;;;;;;-144.30;65.31;84116.44;5105789;28;20206;-50
2023/08/27 02:33:22;;;;;;;10.27;8.45;;;;;;;-144.30;66.93;84108.50;5105898;28;20194;-50
2023/08/27 02:39:38;;;;;;;9.30;7.75;;;;;;;-144.30;66.90;84112.47;5104165;28;20202;-50
2023/08/27 02:42:29;;;;;;;7.93;7.20;;;;;;;-144.30;67.26;84116.44;5105351;28;20688;-53
2023/08/27 02:51:53;;;;;;;8.20;7.55;;;;;;;-144.30;67.04;84092.59;5102850;28;20584;-53
2023/08/27 03:04:24;;;;;;;11.48;8.05;;;;;;;-144.30;66.46;84132.34;5090635;28;20307;-51
2023/08/27 03:07:10;;;;;;;8.68;7.32;;;;;;;-144.30;65.76;84100.53;5090012;28;20195;-50
2023/08/27 03:10:24;;;;;;;8.35;7.38;;;;;;;-144.30;65.27;84116.44;5090149;28;20207;-54
2023/08/27 03:13:01;;;;;;;8.30;7.60;;;;;;;-144.30;65.93;84084.66;5088965;28;20191;-53
2023/08/27 03:16:18;;;;;;;9.20;8.35;;;;;;;-144.30;66.89;84112.47;5090769;28;20278;-48
2023/08/27 03:18:50;;;;;;;8.93;7.85;;;;;;;-144.30;67.18;84140.28;5091038;28;20191;-50
2023/08/27 03:21:21;;;;;;;8.85;7.80;;;;;;;-144.30;67.09;84106.50;5090993;28;20202;-54
2023/08/27 03:23:53;;;;;;;11.10;7.47;;;;;;;-144.30;68.11;84114.44;5090765;28;20211;-54
2023/08/27 03:26:23;;;;;;;10.38;8.43;;;;;;;-144.30;70.95;84138.28;5090602;28;20195;-51
2023/08/27 03:28:53;;;;;;;8.27;7.47;;;;;;;-144.30;70.85;84140.28;5090882;28;20717;-49
2023/08/27 03:31:38;;;;;;;8.75;7.72;;;;;;;-144.30;70.36;84136.31;5090658;28;20195;-54
2023/08/27 03:34:09;;;;;;;9.57;8.23;;;;;;;-144.30;70.81;84150.22;5089996;28;20202;-56
2023/08/27 03:36:43;;;;;;;9.63;8.50;;;;;;;-144.30;71.11;84154.19;5088596;28;20199;-51
2023/08/27 03:39:31;;;;;;;9.20;8.35;;;;;;;-144.30;70.89;84140.28;5090427;28;20281;-50
2023/08/27 03:42:06;;;;;;;10.30;7.95;;;;;;;-144.30;69.92;84130.34;5087131;28;20202;-49
2023/08/27 03:45:00;;;;;;;8.98;8.27;;;;;;;-144.30;68.60;84112.47;5047741;28;20274;-50
2023/08/27 03:47:47;;;;;;;8.68;7.88;;;;;;;-144.30;69.34;84144.25;5049658;28;20207;-54
2023/08/27 03:50:42;;;;;;;9.02;8.15;;;;;;;-144.30;69.97;84154.19;5047541;28;20204;-52
2023/08/27 03:53:33;;;;;;;9.13;8.25;;;;;;;-144.30;70.38;84176.06;5049547;28;20278;-51
2023/08/27 03:56:04;;;;;;;11.88;9.27;;;;;;;-144.30;70.01;84189.97;5050035;28;20197;-53
2023/08/27 03:58:32;;;;;;;10.27;8.95;;;;;;;-144.30;66.20;84180.03;5049821;28;20207;-52
2023/08/27 04:01:05;;;;;;;10.23;8.48;;;;;;;-144.30;65.28;84130.34;5049893;28;20201;-53
2023/08/27 04:03:53;;;;;;;11.20;8.98;;;;;;;-144.30;63.50;84166.13;5048727;28;20231;-49
2023/08/27 04:12:37;;;;;;;12.05;9.30;;;;;;;-144.30;62.26;84160.16;5046402;28;20207;-51
2023/08/27 04:21:58;;;;;;;13.13;9.43;;;;;;;-144.30;60.93;84152.22;5049167;28;20248;-50
2023/08/27 04:25:15;;;;;;;9.68;8.77;;;;;;;-144.30;59.74;84013.09;5049836;28;20224;-48
2023/08/27 04:28:29;;;;;;;;;;;;;;;;;;;;;
2023/08/27 04:37:21;;;;;;;16.85;9.73;;;;;;;-144.30;48.49;83365.34;5049182;28;20196;-53
2023/08/27 04:46:21;;;;;;;9.55;8.57;;;;;;;-144.30;44.50;82999.81;5087144;28;20205;-54
2023/08/27 04:50:01;;;;;;;;;;;;;;;;;;;;;
2023/08/27 04:53:10;;;;;;;10.07;9.00;;;;;;;-144.30;40.39;82646.22;5088452;28;20201;-54
2023/08/27 05:08:24;;;;;;;11.10;8.70;;;;;;;-144.30;37.06;82306.56;5087843;28;20659;-53
2023/08/27 05:10:56;;;;;;;11.13;8.85;;;;;;;-144.30;37.50;82332.38;5089228;28;20575;-51
2023/08/27 05:13:48;;;;;;;8.60;7.82;;;;;;;-144.30;37.50;82328.41;5089126;28;20199;-51
2023/08/27 05:16:43;;;;;;;8.55;7.80;;;;;;;-144.30;36.42;82205.28;5088541;28;20191;-53
2023/08/27 05:19:13;;;;;;;10.05;8.05;;;;;;;-144.30;35.72;82046.41;5089024;28;20291;-51
2023/08/27 05:21:47;;;;;;;10.10;7.75;;;;;;;-144.30;35.10;81919.28;5089507;28;20201;-51
2023/08/27 05:24:22;;;;;;;9.13;8.40;;;;;;;-144.30;34.93;81903.41;5088230;28;20223;-51
2023/08/27 05:26:56;;;;;;;9.32;8.18;;;;;;;-144.30;34.56;81812.06;5089265;28;20195;-51
2023/08/27 05:29:24;;;;;;;11.07;7.95;;;;;;;-144.30;34.40;81895.47;5085494;28;20872;-52
2023/08/27 05:31:56;;;;;;;9.10;8.30;;;;;;;-144.30;34.10;81800.13;5086611;28;20195;-51
2023/08/27 05:34:31;;;;;;;11.80;9.13;;;;;;;-144.30;33.50;81573.75;5088919;28;20675;-50
2023/08/27 05:37:06;;;;;;;8.60;7.82;;;;;;;-144.30;32.85;81555.88;5089002;28;20191;-53
2023/08/27 05:39:45;;;;;;;9.07;8.38;;;;;;;-144.30;32.44;81458.59;5087189;28;20191;-52
2023/08/27 05:42:21;;;;;;;16.90;8.73;;;;;;;-144.30;32.75;81514.19;5083456;28;20229;-52
2023/08/27 05:44:59;;;;;;;10.23;8.30;;;;;;;-144.30;32.55;81393.06;5087623;28;20233;-50
2023/08/27 05:47:53;;;;;;;10.45;7.97;;;;;;;-144.30;32.15;81482.41;5088803;28;20290;-54
2023/08/27 05:50:21;;;;;;;8.63;7.97;;;;;;;-144.30;32.49;81456.59;5085731;28;20601;-51
2023/08/27 05:52:55;;;;;;;8.30;7.70;;;;;;;-144.30;31.53;81291.78;5086085;28;20203;-51
2023/08/27 05:55:35;;;;;;;9.18;7.82;;;;;;;-144.30;31.33;81216.34;5082872;28;20201;-52
2023/08/27 05:58:15;;;;;;;10.63;7.95;;;;;;;-144.30;31.14;81097.22;5087037;28;20190;-54
2023/08/27 06:00:47;;;;;;;8.93;8.02;;;;;;;-144.30;30.28;80902.66;5083770;28;20220;-54
2023/08/27 06:03:22;;;;;;;8.98;8.10;;;;;;;-144.30;30.26;81029.72;5088475;28;20704;-51
2023/08/27 06:09:07;;;;;;;7.45;6.95;;;;;;;-144.30;30.40;80938.38;5066311;28;20207;-52
2023/08/27 06:14:38;;;;;;;8.82;7.93;;;;;;;-144.30;30.75;81127.00;5066670;28;20199;-53
2023/08/27 06:17:37;;;;;;;9.95;7.97;;;;;;;-144.30;30.94;81101.19;5068957;28;20195;-51
2023/08/27 06:20:08;;;;;;;11.25;10.10;;;;;;;-144.30;30.23;80902.66;5069173;28;20741;-52
2023/08/27 06:22:58;;;;;;;9.70;8.63;;;;;;;-144.30;29.77;80757.72;5068893;28;20195;-52
2023/08/27 06:35:44;;;;;;;15.35;8.82;;;;;;;-144.30;29.11;80529.41;5069723;28;20585;-52
2023/08/27 07:07:24;;;;;;;11.07;8.10;;;;;;;-144.30;28.18;80168.16;5069530;28;20570;-54
2023/08/27 07:16:32;;;;;;;8.57;7.57;;;;;;;-144.30;28.32;80372.59;5070441;28;20654;-51
2023/08/27 07:19:19;;;;;;;8.13;7.28;;;;;;;-144.30;28.96;80654.47;5078301;28;20644;-50
2023/08/27 07:21:57;;;;;;;8.75;7.97;;;;;;;-144.30;28.90;81260.03;5091618;28;20204;-51
2023/08/27 07:24:42;;;;;;;7.38;6.78;;;;;;;-144.30;28.08;80307.09;5091645;28;20305;-51
2023/08/27 07:27:34;;;;;;;7.95;7.30;;;;;;;-144.30;27.83;80106.63;5091302;28;20728;-54
2023/08/27 07:33:20;;;;;;;8.55;7.95;;;;;;;-144.30;27.58;80126.47;5091603;28;20203;-53
2023/08/27 07:36:11;;;;;;;10.60;9.75;;;;;;;-144.30;27.87;80203.88;5090957;28;20277;-51
2023/08/27 07:38:59;;;;;;;7.93;7.20;;;;;;;-144.30;27.88;80098.66;5091267;28;20203;-51
2023/08/27 07:41:44;;;;;;;8.05;7.25;;;;;;;-144.30;28.38;80477.81;5090305;28;20550;-54
2023/08/27 07:44:44;;;;;;;8.05;7.32;;;;;;;-144.30;28.20;80360.69;5089451;28;20355;-53
2023/08/27 07:51:02;;;;;;;9.70;7.97;;;;;;;-144.30;27.71;80066.91;5090147;28;20268;-53
2023/08/27 07:53:45;;;;;;;8.70;7.47;;;;;;;-144.30;27.18;79999.44;5091128;28;20710;-54
2023/08/27 07:57:02;;;;;;;16.55;14.02;;;;;;;-144.30;26.67;79846.59;5091247;28;20226;-54
2023/08/27 08:03:21;;;;;;;7.93;7.22;;;;;;;-144.30;26.13;79612.41;5090851;28;20203;-51
2023/08/27 08:11:59;;;;;;;8.27;7.65;;;;;;;-144.30;25.90;79406.00;5083482;28;20762;-52
2023/08/27 08:14:29;;;;;;;8.02;7.38;;;;;;;-144.30;25.62;79247.25;5090580;28;20194;-53
2023/08/27 08:17:03;;;;;;;7.95;7.35;;;;;;;-144.30;25.51;79157.97;5090526;28;20210;-51
2023/08/27 08:19:41;;;;;;;8.43;7.68;;;;;;;-144.30;25.26;79076.59;5090402;28;20234;-51
2023/08/27 08:22:25;;;;;;;9.45;7.75;;;;;;;-144.30;25.26;79068.66;5088982;28;20293;-53
2023/08/27 08:25:07;;;;;;;7.32;6.82;;;;;;;-144.30;25.29;79144.06;5090744;28;20600;-53
2023/08/27 08:27:58;;;;;;;8.90;8.15;;;;;;;-144.30;24.96;79136.13;5090538;28;20205;-50
2023/08/27 08:30:51;;;;;;;8.50;6.72;;;;;;;-144.30;24.93;79191.69;5089496;28;20195;-54
2023/08/27 08:33:49;;;;;;;10.15;7.32;;;;;;;-144.30;25.54;79392.13;5090366;28;20194;-50
2023/08/27 08:36:40;;;;;;;7.78;7.18;;;;;;;-144.30;25.31;79159.94;5090022;28;20203;-52
2023/08/27 08:42:46;;;;;;;7.00;6.38;;;;;;;-144.30;25.35;79104.38;5087847;28;20202;-53
2023/08/27 08:49:22;;;;;;;8.18;7.47;;;;;;;-144.30;25.81;79445.69;5067340;28;20223;-51
2023/08/27 08:52:32;;;;;;;7.10;6.60;;;;;;;-144.30;25.39;79640.19;5067561;28;20618;-53
2023/08/27 08:55:12;;;;;;;7.85;6.90;;;;;;;-144.30;25.78;79957.75;5069263;28;20195;-53
2023/08/27 08:57:51;;;;;;;8.40;6.70;;;;;;;-144.30;26.02;80045.09;5069551;28;20222;-51
2023/08/27 09:00:27;;;;;;;7.25;6.55;;;;;;;-144.30;25.67;79922.03;5067484;28;20198;-52
2023/08/27 09:03:08;;;;;;;7.85;7.15;;;;;;;-144.30;26.19;80172.09;5066955;28;20191;-54
2023/08/27 09:05:48;;;;;;;7.53;6.80;;;;;;;-144.30;26.18;80080.81;5066827;28;20215;-54
2023/08/27 09:08:56;;;;;;;7.13;6.30;;;;;;;-144.30;26.32;80253.50;5067301;28;20196;-51
2023/08/27 09:11:40;;;;;;;9.85;6.63;;;;;;;-144.30;26.04;80313.03;5069449;28;20190;-54
2023/08/27 09:14:17;;;;;;;7.97;6.65;;;;;;;-144.30;25.97;80172.09;5068437;28;20318;-52
2023/08/27 09:17:12;;;;;;;6.75;6.20;;;;;;;-144.30;26.02;80152.25;5068465;28;20197;-51
2023/08/27 09:19:46;;;;;;;7.80;6.03;;;;;;;-144.30;25.37;79810.88;5069326;28;20196;-50
2023/08/27 09:22:35;;;;;;;6.75;6.15;;;;;;;-144.30;25.29;79533.03;5066661;28;20282;-53
2023/08/27 09:32:08;;;;;;;6.97;6.28;;;;;;;-144.30;23.91;78790.88;5069310;28;20195;-54
2023/08/27 09:44:33;;;;;;;6.60;6.05;;;;;;;-144.30;23.74;79027.00;5077299;28;20222;-52
2023/08/27 09:47:12;;;;;;;11.48;7.03;;;;;;;-144.30;23.86;79060.72;5087741;28;20248;-55
2023/08/27 09:53:12;;;;;;;6.45;5.88;;;;;;;-144.30;24.18;78786.91;5089223;28;20199;-52
2023/08/27 09:56:02;;;;;;;7.35;6.65;;;;;;;-144.30;24.85;79078.59;5086501;28;20610;-52
2023/08/27 09:59:02;;;;;;;7.55;6.20;;;;;;;-144.30;25.20;78886.13;5087773;28;20202;-51
2023/08/27 10:02:14;;;;;;;6.07;5.63;;;;;;;-144.30;24.81;79241.31;5089077;28;20201;-54
2023/08/27 10:08:07;;;;;;;6.15;5.65;;;;;;;-144.30;26.26;80404.34;5073026;28;20203;-54
2023/08/27 10:14:47;;;;;;;6.85;6.25;;;;;;;-144.30;28.36;81524.13;5071728;28;20235;-52
2023/08/27 10:17:45;;;;;;;6.90;6.30;;;;;;;-144.30;30.55;81843.81;5072085;28;20744;-52
2023/08/27 10:21:07;;;;;;;6.47;5.85;;;;;;;-144.30;30.38;81941.13;5072952;28;20196;-53
2023/08/27 10:27:09;;;;;;;6.53;6.00;;;;;;;-144.30;31.40;82082.13;5069180;28;20293;-52
2023/08/27 10:29:46;;;;;;;5.90;4.97;;;;;;;-144.30;30.43;82145.69;5071709;28;20286;-52
2023/08/27 10:32:45;;;;;;;8.00;5.70;;;;;;;-144.30;30.51;82225.13;5072609;28;20227;-52
2023/08/27 10:39:07;;;;;;;5.68;5.28;;;;;;;-144.30;31.44;82340.34;5091047;28;20207;-51
2023/08/27 10:42:04;;;;;;;5.32;4.85;;;;;;;-144.30;30.57;82286.72;5091693;28;20230;-51
2023/08/27 10:44:43;;;;;;;8.57;5.65;;;;;;;-144.30;31.57;82328.41;5086131;28;20226;-51
2023/08/27 10:47:15;;;;;;;7.40;5.40;;;;;;;-144.30;31.39;82328.41;5090733;28;20268;-51
2023/08/27 10:49:54;;;;;;;6.22;5.82;;;;;;;-144.30;30.77;82306.56;5088663;28;20228;-53
2023/08/27 10:52:34;;;;;;;5.82;5.25;;;;;;;-144.30;31.13;82312.53;5088678;28;20203;-53
2023/08/27 10:55:05;;;;;;;5.57;5.18;;;;;;;-144.30;30.93;82304.59;5090307;28;20191;-51
2023/08/27 10:57:40;;;;;;;5.38;5.07;;;;;;;-144.30;30.82;82356.22;5087189;28;20223;-53
2023/08/27 11:00:14;;;;;;;6.93;5.68;;;;;;;-144.30;31.55;82296.63;5088811;28;20210;-54
2023/08/27 11:03:23;;;;;;;8.77;6.00;;;;;;;-144.30;31.76;82284.72;5090624;28;20202;-54
2023/08/27 11:06:21;;;;;;;7.50;6.50;;;;;;;-144.30;31.95;82292.66;5088823;28;20656;-54
2023/08/27 11:08:56;;;;;;;8.23;6.90;;;;;;;-144.30;31.67;82229.09;5088288;28;20306;-53
2023/08/27 11:11:45;;;;;;;6.45;6.05;;;;;;;-144.30;31.84;82223.16;5091266;28;20191;-54
2023/08/27 11:14:29;;;;;;;6.88;6.30;;;;;;;-144.30;31.93;82092.06;5089184;28;20203;-53
2023/08/27 11:17:03;;;;;;;6.05;5.65;;;;;;;-144.30;31.72;82179.47;5088134;28;20592;-53
2023/08/27 11:19:39;;;;;;;6.32;5.63;;;;;;;-144.30;31.43;82201.31;5088373;28;20210;-54
2023/08/27 11:22:15;;;;;;;6.20;5.78;;;;;;;-144.30;31.77;82213.22;5088670;28;20656;-54
2023/08/27 11:24:47;;;;;;;6.78;6.18;;;;;;;-144.30;31.37;82213.22;5089156;28;20199;-52
2023/08/27 11:27:20;;;;;;;6.68;6.15;;;;;;;-144.30;32.27;82221.16;5090650;28;20663;-54
2023/08/27 11:30:10;;;;;;;6.70;6.10;;;;;;;-144.30;32.68;82241.03;5085850;28;20187;-54
2023/08/27 11:33:08;;;;;;;6.22;5.55;;;;;;;-144.30;32.06;82227.13;5088646;28;20192;-54
2023/08/27 11:35:46;;;;;;;9.13;6.50;;;;;;;-144.30;32.03;82201.31;5075048;28;20757;-52
2023/08/27 11:38:44;;;;;;;6.65;6.13;;;;;;;-144.30;32.25;82213.22;5070665;28;20208;-51
2023/08/27 11:44:06;;;;;;;6.65;5.95;;;;;;;-144.30;32.02;82153.63;5075833;28;20637;-53
2023/08/27 11:46:46;;;;;;;6.25;5.75;;;;;;;-144.30;32.41;82262.88;5086987;28;20215;-53
2023/08/27 11:49:17;;;;;;;6.95;6.40;;;;;;;-144.30;32.68;82262.88;5090059;28;20187;-53
2023/08/27 11:51:51;;;;;;;6.88;6.30;;;;;;;-144.30;32.17;82221.16;5090019;28;20828;-53
2023/08/27 11:54:28;;;;;;;5.95;5.53;;;;;;;-144.30;32.07;82209.25;5085695;28;20202;-53
2023/08/27 11:57:06;;;;;;;6.05;5.50;;;;;;;-144.30;31.66;82246.97;5085060;28;20195;-54
2023/08/27 11:59:37;;;;;;;6.15;5.55;;;;;;;-144.30;31.57;82264.88;5087475;28;20191;-53
2023/08/27 12:02:11;;;;;;;7.03;5.40;;;;;;;-144.30;31.67;82304.59;5089392;28;20210;-53
2023/08/27 12:04:56;;;;;;;5.45;5.03;;;;;;;-144.30;32.03;82276.78;5084674;28;20199;-54
2023/08/27 12:07:33;;;;;;;5.43;4.93;;;;;;;-144.30;31.97;82280.75;5088510;28;20758;-53
2023/08/27 12:10:13;;;;;;;5.75;5.25;;;;;;;-144.30;31.27;82235.06;5087543;28;20638;-53
2023/08/27 12:13:23;;;;;;;5.65;5.18;;;;;;;-144.30;31.37;82248.97;5069843;28;20231;-49
2023/08/27 12:16:04;;;;;;;5.40;5.10;;;;;;;-144.30;30.85;82215.22;5080075;28;20195;-51
2023/08/27 12:18:47;;;;;;;8.70;4.97;;;;;;;-144.30;30.64;82221.16;5089469;28;20199;-51
2023/08/27 12:21:22;;;;;;;5.53;5.13;;;;;;;-144.30;30.55;82258.91;5090044;28;20202;-53
2023/08/27 12:23:59;;;;;;;5.47;4.97;;;;;;;-144.30;30.43;82225.13;5088657;28;20271;-53
2023/08/27 12:26:38;;;;;;;5.35;5.03;;;;;;;-144.30;30.38;82280.75;5086958;28;20211;-52
2023/08/27 12:29:17;;;;;;;4.68;4.38;;;;;;;-144.30;30.74;82276.78;5089117;28;20195;-51
2023/08/27 12:31:50;;;;;;;4.85;4.55;;;;;;;-144.30;30.57;82225.13;5086463;28;20794;-51
2023/08/27 12:34:33;;;;;;;5.22;4.53;;;;;;;-144.30;29.81;82215.22;5088425;28;20196;-52
2023/08/27 12:37:03;;;;;;;7.70;4.28;;;;;;;-144.30;30.12;82246.97;5086757;28;20203;-51
2023/08/27 12:39:32;;;;;;;4.95;4.40;;;;;;;-144.30;29.89;82205.28;5088841;28;20191;-51
2023/08/27 12:42:02;;;;;;;5.75;4.78;;;;;;;-144.30;30.16;82268.84;5086749;28;20206;-52
2023/08/27 12:44:35;;;;;;;4.78;4.35;;;;;;;-144.30;30.20;82183.44;5088107;28;20276;-53
2023/08/27 12:47:04;;;;;;;4.82;4.43;;;;;;;-144.30;30.22;82229.09;5086416;28;20233;-50
2023/08/27 12:49:42;;;;;;;7.82;4.78;;;;;;;-144.30;30.11;82217.19;5088033;28;20207;-54
2023/08/27 12:52:09;;;;;;;11.35;4.65;;;;;;;-144.30;29.97;82223.16;5087849;28;20198;-49
2023/08/27 12:54:48;;;;;;;5.15;4.75;;;;;;;-144.30;29.86;82217.19;5087201;28;20618;-52
2023/08/27 12:57:20;;;;;;;6.88;4.10;;;;;;;-144.30;29.84;82217.19;5088141;28;20187;-52
2023/08/27 12:59:56;;;;;;;5.20;4.65;;;;;;;-144.30;30.23;82217.19;5087780;28;20644;-51
2023/08/27 13:02:25;;;;;;;4.55;4.25;;;;;;;-144.30;30.25;82203.28;5086730;28;20195;-50
2023/08/27 13:05:04;;;;;;;4.43;4.03;;;;;;;-144.30;30.30;82181.44;5088239;28;20226;-51
2023/08/27 13:07:37;;;;;;;4.50;4.07;;;;;;;-144.30;30.30;82209.25;5087990;28;20296;-54
2023/08/27 13:10:12;;;;;;;4.88;4.30;;;;;;;-144.30;30.45;82219.19;5087610;28;20203;-53
2023/08/27 13:12:45;;;;;;;4.50;4.10;;;;;;;-144.30;30.21;82201.31;5087035;28;20197;-54
2023/08/27 13:15:18;;;;;;;5.40;4.30;;;;;;;-144.30;29.94;82195.34;5087577;28;20197;-53
2023/08/27 13:17:47;;;;;;;5.03;4.63;;;;;;;-144.30;30.25;82231.09;5086002;28;20191;-53
2023/08/27 13:20:25;;;;;;;6.85;4.22;;;;;;;-144.30;30.31;82237.06;5088216;28;20671;-51
2023/08/27 13:23:00;;;;;;;5.22;4.70;;;;;;;-144.30;30.33;82165.56;5087433;28;20644;-51
2023/08/27 13:25:32;;;;;;;4.18;3.97;;;;;;;-144.30;29.96;82219.19;5087900;28;20190;-51
2023/08/27 13:28:06;;;;;;;4.85;4.43;;;;;;;-144.30;30.21;82197.34;5086619;28;20199;-52
2023/08/27 13:30:36;;;;;;;3.88;3.60;;;;;;;-144.30;30.30;82246.97;5086397;28;20199;-53
2023/08/27 13:33:49;;;;;;;;;;;;;;;;;;;;;
2023/08/27 13:43:10;;;;;;;4.15;3.95;;;;;;;-144.30;30.06;82316.50;5089075;28;20195;-53
2023/08/27 13:46:14;;;;;;;4.85;4.32;;;;;;;-144.30;30.09;82292.66;5088045;28;20213;-53
2023/08/27 13:49:13;;;;;;;5.05;4.45;;;;;;;-144.30;30.06;82256.91;5088817;28;20195;-51
2023/08/27 13:52:21;;;;;;;4.88;4.47;;;;;;;-144.30;29.80;82258.91;5087164;28;20295;-53
2023/08/27 13:54:55;;;;;;;5.90;4.00;;;;;;;-144.30;29.76;82256.91;5088248;28;20210;-53
2023/08/27 13:57:39;;;;;;;5.80;3.78;;;;;;;-144.30;29.61;82282.75;5088529;28;20685;-52
2023/08/27 14:00:21;;;;;;;4.43;4.22;;;;;;;-144.30;29.16;82217.19;5075859;28;20672;-51
2023/08/27 14:03:00;;;;;;;4.53;4.22;;;;;;;-144.30;28.90;82260.88;5085206;28;20191;-52
2023/08/27 14:05:40;;;;;;;4.85;4.55;;;;;;;-144.30;28.73;82252.94;5085711;28;20214;-51
2023/08/27 14:08:44;;;;;;;6.22;4.88;;;;;;;-144.30;28.67;82268.84;5081285;28;20202;-51
2023/08/27 14:11:25;;;;;;;5.22;4.55;;;;;;;-144.30;28.98;82286.72;5084270;28;20226;-53
2023/08/27 14:13:56;;;;;;;6.80;4.38;;;;;;;-144.30;29.02;82248.97;5085545;28;20244;-53
2023/08/27 14:16:50;;;;;;;5.25;4.80;;;;;;;-144.30;29.09;82243.00;5086565;28;20191;-53
2023/08/27 14:19:31;;;;;;;8.32;5.28;;;;;;;-144.30;28.88;82243.00;5082781;28;20195;-54
2023/08/27 14:22:08;;;;;;;5.88;5.22;;;;;;;-144.30;28.86;82260.88;5086905;28;20344;-53
2023/08/27 14:25:12;;;;;;;8.02;5.32;;;;;;;-144.30;28.90;82243.00;5073980;28;20445;-54
2023/08/27 14:27:46;;;;;;;4.80;4.32;;;;;;;-144.30;28.67;82241.03;5079126;28;20219;-51
2023/08/27 14:30:21;;;;;;;6.78;6.07;;;;;;;-144.30;28.49;82243.00;5086973;28;20195;-53
2023/08/27 14:32:54;;;;;;;9.00;5.30;;;;;;;-144.30;28.58;82197.34;5087279;28;20274;-49
2023/08/27 14:35:27;;;;;;;6.22;5.70;;;;;;;-144.30;28.17;82201.31;5087318;28;20278;-51
2023/08/27 14:37:58;;;;;;;5.65;5.25;;;;;;;-144.30;28.06;82165.56;5084381;28;20590;-51
2023/08/27 14:40:31;;;;;;;5.40;5.00;;;;;;;-144.30;28.25;82245.00;5084344;28;20641;-50
2023/08/27 14:43:11;;;;;;;5.32;4.68;;;;;;;-144.30;28.10;82233.09;5085830;28;20234;-51
2023/08/27 14:46:06;;;;;;;4.03;3.78;;;;;;;-144.30;27.88;82201.31;5086376;28;20234;-54
2023/08/27 14:48:52;;;;;;;3.78;3.50;;;;;;;-144.30;27.76;82233.09;5083954;28;20680;-54
2023/08/27 14:51:33;;;;;;;5.95;3.60;;;;;;;-144.30;27.88;82248.97;5079176;28;20261;-51
2023/08/27 14:54:06;;;;;;;4.28;3.60;;;;;;;-144.30;27.46;82213.22;5077771;28;20206;-52
2023/08/27 14:56:45;;;;;;;4.47;4.10;;;;;;;-144.30;27.69;82260.88;5090808;28;20223;-50
2023/08/27 14:59:47;;;;;;;4.53;4.18;;;;;;;-144.30;27.55;82268.84;5090371;28;20228;-51
2023/08/27 15:02:37;;;;;;;4.22;3.92;;;;;;;-144.30;27.86;82237.06;5072051;28;20202;-52
2023/08/27 15:05:08;;;;;;;3.65;3.40;;;;;;;-144.30;28.07;82237.06;5087980;28;20199;-51
2023/08/27 15:08:02;;;;;;;3.70;3.40;;;;;;;-144.30;27.87;82245.00;5082489;28;20230;-51
2023/08/27 15:11:14;;;;;;;4.05;3.63;;;;;;;-144.30;27.75;82260.88;5090830;28;20703;-51
2023/08/27 15:23:21;;;;;;;4.53;3.97;;;;;;;-144.30;27.85;82304.59;5087127;28;20199;-53
2023/08/27 15:32:05;;;;;;;11.13;3.92;;;;;;;-144.30;27.90;82282.75;5088239;28;20296;-54
2023/08/27 15:35:02;;;;;;;3.90;3.50;;;;;;;-144.30;28.04;82314.50;5090792;28;20191;-54
2023/08/27 15:38:01;;;;;;;5.20;3.55;;;;;;;-144.30;28.13;82290.69;5091182;28;20672;-52
2023/08/27 15:41:17;;;;;;;9.63;3.65;;;;;;;-144.30;28.37;82316.50;5091335;28;20710;-53
2023/08/27 15:44:37;;;;;;;3.90;3.50;;;;;;;-144.30;28.34;82332.38;5090395;28;20235;-51
2023/08/27 15:47:46;;;;;;;3.78;3.47;;;;;;;-144.30;28.32;82284.72;5091119;28;20615;-51
2023/08/27 15:50:16;;;;;;;4.30;3.55;;;;;;;-144.30;28.37;82606.50;5083866;28;20200;-51
2023/08/27 15:52:51;;;;;;;8.13;4.13;;;;;;;-144.30;28.34;82348.28;5086154;28;20294;-51
2023/08/27 15:55:26;;;;;;;3.83;3.63;;;;;;;-144.30;28.62;82356.22;5070206;28;20199;-54
2023/08/27 15:58:25;;;;;;;4.28;3.97;;;;;;;-144.30;28.37;82320.47;5071087;28;20210;-54
2023/08/27 16:03:55;;;;;;;6.28;3.90;;;;;;;-144.30;28.85;82338.34;5087181;28;20662;-51
2023/08/27 16:06:46;;;;;;;4.35;3.80;;;;;;;-144.30;29.00;82360.19;5083881;28;20286;-53
2023/08/27 16:09:33;;;;;;;4.20;3.92;;;;;;;-144.30;28.99;82374.09;5088928;28;20195;-52
2023/08/27 16:12:01;;;;;;;3.78;3.58;;;;;;;-144.30;29.06;82384.03;5089576;28;20211;-53
2023/08/27 16:14:34;;;;;;;4.18;3.60;;;;;;;-144.30;29.54;82399.91;5089605;28;20267;-53
2023/08/27 16:17:21;;;;;;;8.70;3.92;;;;;;;-144.30;29.70;82435.66;5088365;28;20629;-53
2023/08/27 16:20:00;;;;;;;4.22;3.90;;;;;;;-144.30;29.92;82439.66;5088367;28;20206;-54
2023/08/27 16:28:29;;;;;;;4.10;3.85;;;;;;;-144.30;30.73;82427.72;5088289;28;20729;-51
2023/08/27 16:31:17;;;;;;;4.10;3.80;;;;;;;-144.30;31.20;82483.34;5088614;28;20655;-53
2023/08/27 16:40:36;;;;;;;4.75;4.32;;;;;;;-144.30;31.22;82511.16;5066623;28;20210;-52
2023/08/27 16:43:41;;;;;;;4.10;3.80;;;;;;;-144.30;31.40;82527.03;5070576;28;21158;-53
2023/08/27 16:49:33;;;;;;;4.93;4.60;;;;;;;-144.30;31.83;82538.97;5048227;28;20205;-50
2023/08/27 16:52:33;;;;;;;5.35;4.32;;;;;;;-144.30;32.34;82578.69;5049610;28;20234;-51
2023/08/27 17:08:21;;;;;;;11.48;4.47;;;;;;;-144.30;33.65;82662.09;5046880;28;20227;-52
2023/08/27 17:11:23;;;;;;;5.60;4.15;;;;;;;-144.30;34.07;82731.63;5048628;28;20752;-51
2023/08/27 17:20:17;;;;;;;7.20;4.53;;;;;;;-144.30;34.52;82713.75;5046372;28;20215;-52
2023/08/27 17:23:39;;;;;;;7.32;4.80;;;;;;;-144.30;34.68;82801.16;5048545;28;20200;-52
2023/08/27 17:26:13;;;;;;;7.65;4.25;;;;;;;-144.30;34.75;82797.19;5048463;28;20197;-52
2023/08/27 17:28:57;;;;;;;5.00;4.20;;;;;;;-144.30;34.75;82793.22;5046003;28;20216;-50
2023/08/27 17:32:09;;;;;;;;;;;;;;;;;;;;;
2023/08/27 17:34:42;;;;;;;5.70;3.83;;;;;;;-144.30;34.96;82542.94;5043073;28;20723;-50